sensor_id;sensor_type;location;lat;lon;timestamp;P1;durP1;ratioP1;P2;durP2;ratioP2
61915;SDS011;47868;51.326;6.550;2022-09-09T00:04:24;0.95;;;0.88;;
61915;SDS011;47868;51.326;6.550;2022-09-09T00:09:47;4.53;;;1.23;;
61915;SDS011;47868;51.326;6.550;2022-09-09T00:15:22;2.58;;;1.25;;
61915;SDS011;47868;51.326;6.550;2022-09-09T00:18:10;1.40;;;1.10;;
61915;SDS011;47868;51.326;6.550;2022-09-09T00:28:58;2.63;;;1.27;;
61915;SDS011;47868;51.326;6.550;2022-09-09T00:31:34;1.92;;;1.33;;
61915;SDS011;47868;51.326;6.550;2022-09-09T00:34:12;3.60;;;1.20;;
61915;SDS011;47868;51.326;6.550;2022-09-09T00:36:41;2.55;;;1.40;;
61915;SDS011;47868;51.326;6.550;2022-09-09T00:42:04;4.72;;;1.65;;
61915;SDS011;47868;51.326;6.550;2022-09-09T00:47:51;2.65;;;1.45;;
61915;SDS011;47868;51.326;6.550;2022-09-09T00:56:06;1.75;;;1.05;;
61915;SDS011;47868;51.326;6.550;2022-09-09T01:01:49;2.35;;;1.65;;
61915;SDS011;47868;51.326;6.550;2022-09-09T01:04:18;2.10;;;1.55;;
61915;SDS011;47868;51.326;6.550;2022-09-09T01:06:58;2.60;;;1.90;;
61915;SDS011;47868;51.326;6.550;2022-09-09T01:09:42;4.43;;;2.00;;
61915;SDS011;47868;51.326;6.550;2022-09-09T01:12:28;2.30;;;2.00;;
61915;SDS011;47868;51.326;6.550;2022-09-09T01:17:31;6.50;;;1.90;;
61915;SDS011;47868;51.326;6.550;2022-09-09T01:20:03;5.03;;;2.00;;
61915;SDS011;47868;51.326;6.550;2022-09-09T01:22:40;3.85;;;2.03;;
61915;SDS011;47868;51.326;6.550;2022-09-09T01:25:29;4.18;;;1.80;;
61915;SDS011;47868;51.326;6.550;2022-09-09T01:28:16;2.92;;;1.70;;
61915;SDS011;47868;51.326;6.550;2022-09-09T01:30:46;4.18;;;1.67;;
61915;SDS011;47868;51.326;6.550;2022-09-09T01:33:15;7.00;;;1.55;;
61915;SDS011;47868;51.326;6.550;2022-09-09T01:35:48;1.85;;;1.30;;
61915;SDS011;47868;51.326;6.550;2022-09-09T01:38:22;1.55;;;1.40;;
61915;SDS011;47868;51.326;6.550;2022-09-09T01:40:49;4.10;;;1.63;;
61915;SDS011;47868;51.326;6.550;2022-09-09T01:43:18;3.05;;;1.55;;
61915;SDS011;47868;51.326;6.550;2022-09-09T01:45:47;5.80;;;1.40;;
61915;SDS011;47868;51.326;6.550;2022-09-09T01:48:16;2.95;;;1.80;;
61915;SDS011;47868;51.326;6.550;2022-09-09T01:50:42;4.30;;;1.58;;
61915;SDS011;47868;51.326;6.550;2022-09-09T01:53:08;3.15;;;1.50;;
61915;SDS011;47868;51.326;6.550;2022-09-09T01:55:39;5.35;;;1.73;;
61915;SDS011;47868;51.326;6.550;2022-09-09T02:03:35;5.13;;;1.70;;
61915;SDS011;47868;51.326;6.550;2022-09-09T02:09:05;2.08;;;1.30;;
61915;SDS011;47868;51.326;6.550;2022-09-09T02:11:36;4.32;;;1.92;;
61915;SDS011;47868;51.326;6.550;2022-09-09T02:14:04;4.32;;;1.65;;
61915;SDS011;47868;51.326;6.550;2022-09-09T02:16:42;2.92;;;1.30;;
61915;SDS011;47868;51.326;6.550;2022-09-09T02:19:15;4.95;;;1.25;;
61915;SDS011;47868;51.326;6.550;2022-09-09T02:21:50;3.80;;;1.40;;
61915;SDS011;47868;51.326;6.550;2022-09-09T02:24:19;3.35;;;1.45;;
61915;SDS011;47868;51.326;6.550;2022-09-09T02:26:46;3.35;;;1.67;;
61915;SDS011;47868;51.326;6.550;2022-09-09T02:29:16;6.45;;;1.58;;
61915;SDS011;47868;51.326;6.550;2022-09-09T02:31:45;2.22;;;1.17;;
61915;SDS011;47868;51.326;6.550;2022-09-09T02:34:12;3.45;;;1.30;;
61915;SDS011;47868;51.326;6.550;2022-09-09T02:36:41;4.97;;;1.67;;
61915;SDS011;47868;51.326;6.550;2022-09-09T02:39:08;1.48;;;1.20;;
61915;SDS011;47868;51.326;6.550;2022-09-09T02:41:36;2.55;;;1.05;;
61915;SDS011;47868;51.326;6.550;2022-09-09T02:44:05;6.35;;;1.45;;
61915;SDS011;47868;51.326;6.550;2022-09-09T02:52:04;3.42;;;1.77;;
61915;SDS011;47868;51.326;6.550;2022-09-09T02:54:41;3.15;;;1.60;;
61915;SDS011;47868;51.326;6.550;2022-09-09T02:59:42;5.65;;;1.70;;
61915;SDS011;47868;51.326;6.550;2022-09-09T03:02:09;2.78;;;1.48;;
61915;SDS011;47868;51.326;6.550;2022-09-09T03:04:36;5.13;;;1.50;;
61915;SDS011;47868;51.326;6.550;2022-09-09T03:07:03;6.90;;;2.00;;
61915;SDS011;47868;51.326;6.550;2022-09-09T03:09:29;8.80;;;1.70;;
61915;SDS011;47868;51.326;6.550;2022-09-09T03:11:55;6.57;;;1.75;;
61915;SDS011;47868;51.326;6.550;2022-09-09T03:14:21;3.75;;;1.50;;
61915;SDS011;47868;51.326;6.550;2022-09-09T03:16:50;6.13;;;1.70;;
61915;SDS011;47868;51.326;6.550;2022-09-09T03:19:16;5.10;;;1.80;;
61915;SDS011;47868;51.326;6.550;2022-09-09T03:21:43;3.28;;;1.35;;
61915;SDS011;47868;51.326;6.550;2022-09-09T03:24:11;3.55;;;1.70;;
61915;SDS011;47868;51.326;6.550;2022-09-09T03:26:39;4.03;;;1.80;;
61915;SDS011;47868;51.326;6.550;2022-09-09T03:29:05;5.70;;;2.00;;
61915;SDS011;47868;51.326;6.550;2022-09-09T03:31:32;4.60;;;1.65;;
61915;SDS011;47868;51.326;6.550;2022-09-09T03:33:58;4.53;;;1.60;;
61915;SDS011;47868;51.326;6.550;2022-09-09T03:36:25;5.30;;;1.65;;
61915;SDS011;47868;51.326;6.550;2022-09-09T03:38:51;5.55;;;1.88;;
61915;SDS011;47868;51.326;6.550;2022-09-09T03:41:19;5.57;;;1.48;;
61915;SDS011;47868;51.326;6.550;2022-09-09T03:43:48;4.85;;;1.98;;
61915;SDS011;47868;51.326;6.550;2022-09-09T03:46:15;8.07;;;1.90;;
61915;SDS011;47868;51.326;6.550;2022-09-09T03:48:40;4.63;;;1.75;;
61915;SDS011;47868;51.326;6.550;2022-09-09T03:51:06;2.58;;;1.50;;
61915;SDS011;47868;51.326;6.550;2022-09-09T03:53:32;5.05;;;1.58;;
61915;SDS011;47868;51.326;6.550;2022-09-09T03:55:58;3.85;;;2.00;;
61915;SDS011;47868;51.326;6.550;2022-09-09T03:58:25;5.35;;;1.92;;
61915;SDS011;47868;51.326;6.550;2022-09-09T04:01:00;5.57;;;2.03;;
61915;SDS011;47868;51.326;6.550;2022-09-09T04:03:31;6.78;;;2.33;;
61915;SDS011;47868;51.326;6.550;2022-09-09T04:05:57;4.90;;;1.73;;
61915;SDS011;47868;51.326;6.550;2022-09-09T04:08:25;3.85;;;1.90;;
61915;SDS011;47868;51.326;6.550;2022-09-09T04:10:51;14.63;;;2.05;;
61915;SDS011;47868;51.326;6.550;2022-09-09T04:13:18;6.90;;;2.10;;
61915;SDS011;47868;51.326;6.550;2022-09-09T04:15:50;4.57;;;1.90;;
61915;SDS011;47868;51.326;6.550;2022-09-09T04:18:20;9.25;;;2.22;;
61915;SDS011;47868;51.326;6.550;2022-09-09T04:20:46;7.93;;;2.17;;
61915;SDS011;47868;51.326;6.550;2022-09-09T04:23:13;8.00;;;2.08;;
61915;SDS011;47868;51.326;6.550;2022-09-09T04:25:43;8.07;;;2.33;;
61915;SDS011;47868;51.326;6.550;2022-09-09T04:28:13;5.97;;;2.40;;
61915;SDS011;47868;51.326;6.550;2022-09-09T04:30:39;9.70;;;2.50;;
61915;SDS011;47868;51.326;6.550;2022-09-09T04:33:05;10.45;;;2.55;;
61915;SDS011;47868;51.326;6.550;2022-09-09T04:35:32;7.07;;;2.30;;
61915;SDS011;47868;51.326;6.550;2022-09-09T04:37:58;8.07;;;2.20;;
61915;SDS011;47868;51.326;6.550;2022-09-09T04:40:23;10.30;;;2.50;;
61915;SDS011;47868;51.326;6.550;2022-09-09T04:42:50;5.57;;;2.30;;
61915;SDS011;47868;51.326;6.550;2022-09-09T04:45:15;6.35;;;2.17;;
61915;SDS011;47868;51.326;6.550;2022-09-09T04:47:41;9.13;;;2.65;;
61915;SDS011;47868;51.326;6.550;2022-09-09T04:50:07;7.50;;;2.40;;
61915;SDS011;47868;51.326;6.550;2022-09-09T04:52:34;8.55;;;2.28;;
61915;SDS011;47868;51.326;6.550;2022-09-09T04:55:00;9.80;;;5.60;;
61915;SDS011;47868;51.326;6.550;2022-09-09T04:57:27;7.75;;;3.55;;
61915;SDS011;47868;51.326;6.550;2022-09-09T04:59:53;7.15;;;2.80;;
61915;SDS011;47868;51.326;6.550;2022-09-09T05:02:19;8.38;;;2.70;;
61915;SDS011;47868;51.326;6.550;2022-09-09T05:04:45;9.45;;;3.28;;
61915;SDS011;47868;51.326;6.550;2022-09-09T05:07:10;6.47;;;2.58;;
61915;SDS011;47868;51.326;6.550;2022-09-09T05:09:36;8.23;;;3.35;;
61915;SDS011;47868;51.326;6.550;2022-09-09T05:12:02;5.30;;;2.92;;
61915;SDS011;47868;51.326;6.550;2022-09-09T05:14:28;5.75;;;2.95;;
61915;SDS011;47868;51.326;6.550;2022-09-09T05:16:55;9.43;;;2.78;;
61915;SDS011;47868;51.326;6.550;2022-09-09T05:19:21;8.20;;;2.60;;
61915;SDS011;47868;51.326;6.550;2022-09-09T05:21:46;8.00;;;2.15;;
61915;SDS011;47868;51.326;6.550;2022-09-09T05:24:12;5.43;;;2.25;;
61915;SDS011;47868;51.326;6.550;2022-09-09T05:26:38;8.77;;;2.70;;
61915;SDS011;47868;51.326;6.550;2022-09-09T05:29:03;7.63;;;2.80;;
61915;SDS011;47868;51.326;6.550;2022-09-09T05:31:30;7.15;;;2.45;;
61915;SDS011;47868;51.326;6.550;2022-09-09T05:33:56;4.93;;;2.20;;
61915;SDS011;47868;51.326;6.550;2022-09-09T05:36:21;7.30;;;2.50;;
61915;SDS011;47868;51.326;6.550;2022-09-09T05:38:48;9.25;;;2.70;;
61915;SDS011;47868;51.326;6.550;2022-09-09T05:41:15;7.15;;;2.40;;
61915;SDS011;47868;51.326;6.550;2022-09-09T05:43:42;11.98;;;2.63;;
61915;SDS011;47868;51.326;6.550;2022-09-09T05:46:22;3.80;;;2.10;;
61915;SDS011;47868;51.326;6.550;2022-09-09T05:48:49;6.82;;;2.17;;
61915;SDS011;47868;51.326;6.550;2022-09-09T05:51:26;11.65;;;3.15;;
61915;SDS011;47868;51.326;6.550;2022-09-09T05:53:54;5.28;;;2.30;;
61915;SDS011;47868;51.326;6.550;2022-09-09T05:56:24;8.02;;;3.08;;
61915;SDS011;47868;51.326;6.550;2022-09-09T05:58:51;6.35;;;2.25;;
61915;SDS011;47868;51.326;6.550;2022-09-09T06:01:22;10.25;;;2.40;;
61915;SDS011;47868;51.326;6.550;2022-09-09T06:03:53;8.00;;;2.42;;
61915;SDS011;47868;51.326;6.550;2022-09-09T06:06:30;12.63;;;3.33;;
61915;SDS011;47868;51.326;6.550;2022-09-09T06:08:59;10.48;;;3.03;;
61915;SDS011;47868;51.326;6.550;2022-09-09T06:11:29;12.30;;;2.83;;
61915;SDS011;47868;51.326;6.550;2022-09-09T06:13:56;7.95;;;3.10;;
61915;SDS011;47868;51.326;6.550;2022-09-09T06:16:23;9.65;;;2.70;;
61915;SDS011;47868;51.326;6.550;2022-09-09T06:18:50;9.07;;;2.70;;
61915;SDS011;47868;51.326;6.550;2022-09-09T06:21:17;12.52;;;3.33;;
61915;SDS011;47868;51.326;6.550;2022-09-09T06:23:44;9.05;;;2.92;;
61915;SDS011;47868;51.326;6.550;2022-09-09T06:26:11;9.63;;;2.88;;
61915;SDS011;47868;51.326;6.550;2022-09-09T06:28:44;7.03;;;2.35;;
61915;SDS011;47868;51.326;6.550;2022-09-09T06:31:11;7.03;;;2.97;;
61915;SDS011;47868;51.326;6.550;2022-09-09T06:33:39;6.97;;;2.38;;
61915;SDS011;47868;51.326;6.550;2022-09-09T06:36:07;9.40;;;2.75;;
61915;SDS011;47868;51.326;6.550;2022-09-09T06:38:36;7.80;;;2.35;;
61915;SDS011;47868;51.326;6.550;2022-09-09T06:41:02;10.75;;;2.53;;
61915;SDS011;47868;51.326;6.550;2022-09-09T06:43:28;6.65;;;2.50;;
61915;SDS011;47868;51.326;6.550;2022-09-09T06:48:28;6.22;;;2.13;;
61915;SDS011;47868;51.326;6.550;2022-09-09T06:51:01;9.90;;;3.20;;
61915;SDS011;47868;51.326;6.550;2022-09-09T06:53:38;5.88;;;2.55;;
61915;SDS011;47868;51.326;6.550;2022-09-09T06:58:50;6.35;;;2.50;;
61915;SDS011;47868;51.326;6.550;2022-09-09T07:01:17;10.20;;;2.40;;
61915;SDS011;47868;51.326;6.550;2022-09-09T07:03:46;6.07;;;2.25;;
61915;SDS011;47868;51.326;6.550;2022-09-09T07:06:23;10.02;;;2.20;;
61915;SDS011;47868;51.326;6.550;2022-09-09T07:08:54;8.73;;;2.45;;
61915;SDS011;47868;51.326;6.550;2022-09-09T07:11:22;5.82;;;2.03;;
61915;SDS011;47868;51.326;6.550;2022-09-09T07:13:50;4.75;;;1.92;;
61915;SDS011;47868;51.326;6.550;2022-09-09T07:16:17;6.18;;;2.38;;
61915;SDS011;47868;51.326;6.550;2022-09-09T07:18:43;7.50;;;2.15;;
61915;SDS011;47868;51.326;6.550;2022-09-09T07:21:10;12.00;;;2.33;;
61915;SDS011;47868;51.326;6.550;2022-09-09T07:23:37;8.77;;;2.22;;
61915;SDS011;47868;51.326;6.550;2022-09-09T07:26:12;5.68;;;1.83;;
61915;SDS011;47868;51.326;6.550;2022-09-09T07:28:40;11.23;;;2.15;;
61915;SDS011;47868;51.326;6.550;2022-09-09T07:31:07;13.98;;;2.67;;
61915;SDS011;47868;51.326;6.550;2022-09-09T07:33:41;4.43;;;1.88;;
61915;SDS011;47868;51.326;6.550;2022-09-09T07:36:09;5.22;;;1.75;;
61915;SDS011;47868;51.326;6.550;2022-09-09T07:38:40;8.98;;;2.22;;
61915;SDS011;47868;51.326;6.550;2022-09-09T07:41:09;7.53;;;2.10;;
61915;SDS011;47868;51.326;6.550;2022-09-09T07:43:39;10.88;;;2.80;;
61915;SDS011;47868;51.326;6.550;2022-09-09T07:46:06;20.00;;;3.10;;
61915;SDS011;47868;51.326;6.550;2022-09-09T07:48:32;7.10;;;2.25;;
61915;SDS011;47868;51.326;6.550;2022-09-09T07:51:12;7.95;;;2.47;;
61915;SDS011;47868;51.326;6.550;2022-09-09T07:53:44;5.60;;;1.88;;
61915;SDS011;47868;51.326;6.550;2022-09-09T07:56:13;5.28;;;2.25;;
61915;SDS011;47868;51.326;6.550;2022-09-09T07:58:42;7.25;;;2.10;;
61915;SDS011;47868;51.326;6.550;2022-09-09T08:01:11;8.43;;;2.45;;
61915;SDS011;47868;51.326;6.550;2022-09-09T08:03:38;7.63;;;2.15;;
61915;SDS011;47868;51.326;6.550;2022-09-09T08:06:05;6.53;;;1.73;;
61915;SDS011;47868;51.326;6.550;2022-09-09T08:08:33;7.88;;;2.25;;
61915;SDS011;47868;51.326;6.550;2022-09-09T08:11:10;8.23;;;2.03;;
61915;SDS011;47868;51.326;6.550;2022-09-09T08:13:39;8.23;;;2.03;;
61915;SDS011;47868;51.326;6.550;2022-09-09T08:18:42;4.50;;;1.73;;
61915;SDS011;47868;51.326;6.550;2022-09-09T08:21:10;7.80;;;2.03;;
61915;SDS011;47868;51.326;6.550;2022-09-09T08:23:38;6.20;;;2.10;;
61915;SDS011;47868;51.326;6.550;2022-09-09T08:26:07;7.10;;;1.73;;
61915;SDS011;47868;51.326;6.550;2022-09-09T08:28:36;6.35;;;2.10;;
61915;SDS011;47868;51.326;6.550;2022-09-09T08:31:21;7.35;;;2.30;;
61915;SDS011;47868;51.326;6.550;2022-09-09T08:33:54;7.07;;;1.92;;
61915;SDS011;47868;51.326;6.550;2022-09-09T08:36:21;5.78;;;1.88;;
61915;SDS011;47868;51.326;6.550;2022-09-09T08:38:51;6.03;;;1.80;;
61915;SDS011;47868;51.326;6.550;2022-09-09T08:50:16;7.28;;;2.05;;
61915;SDS011;47868;51.326;6.550;2022-09-09T08:52:51;4.85;;;1.98;;
61915;SDS011;47868;51.326;6.550;2022-09-09T08:58:38;7.20;;;1.60;;
61915;SDS011;47868;51.326;6.550;2022-09-09T09:12:15;4.85;;;1.63;;
61915;SDS011;47868;51.326;6.550;2022-09-09T09:14:43;5.15;;;1.90;;
61915;SDS011;47868;51.326;6.550;2022-09-09T09:17:13;2.90;;;1.52;;
61915;SDS011;47868;51.326;6.550;2022-09-09T09:19:44;6.10;;;1.80;;
61915;SDS011;47868;51.326;6.550;2022-09-09T09:25:19;9.02;;;1.98;;
61915;SDS011;47868;51.326;6.550;2022-09-09T09:30:41;6.82;;;1.70;;
61915;SDS011;47868;51.326;6.550;2022-09-09T09:36:18;6.97;;;1.73;;
61915;SDS011;47868;51.326;6.550;2022-09-09T09:38:57;7.07;;;2.05;;
61915;SDS011;47868;51.326;6.550;2022-09-09T09:41:28;2.33;;;1.38;;
61915;SDS011;47868;51.326;6.550;2022-09-09T09:43:55;5.65;;;1.80;;
61915;SDS011;47868;51.326;6.550;2022-09-09T09:46:21;9.75;;;1.83;;
61915;SDS011;47868;51.326;6.550;2022-09-09T09:51:25;10.20;;;1.70;;
61915;SDS011;47868;51.326;6.550;2022-09-09T09:53:51;4.60;;;1.90;;
61915;SDS011;47868;51.326;6.550;2022-09-09T09:56:25;5.93;;;1.30;;
61915;SDS011;47868;51.326;6.550;2022-09-09T09:58:53;3.58;;;1.63;;
61915;SDS011;47868;51.326;6.550;2022-09-09T10:01:23;5.88;;;1.50;;
61915;SDS011;47868;51.326;6.550;2022-09-09T10:03:53;5.35;;;1.48;;
61915;SDS011;47868;51.326;6.550;2022-09-09T10:06:30;6.18;;;1.63;;
61915;SDS011;47868;51.326;6.550;2022-09-09T10:09:00;4.75;;;1.55;;
61915;SDS011;47868;51.326;6.550;2022-09-09T10:11:46;6.15;;;1.30;;
61915;SDS011;47868;51.326;6.550;2022-09-09T10:14:30;6.40;;;1.45;;
61915;SDS011;47868;51.326;6.550;2022-09-09T10:17:17;4.28;;;1.50;;
61915;SDS011;47868;51.326;6.550;2022-09-09T10:23:11;5.10;;;1.20;;
61915;SDS011;47868;51.326;6.550;2022-09-09T10:34:05;4.57;;;1.88;;
61915;SDS011;47868;51.326;6.550;2022-09-09T10:36:46;2.47;;;1.30;;
61915;SDS011;47868;51.326;6.550;2022-09-09T10:55:19;3.65;;;1.73;;
61915;SDS011;47868;51.326;6.550;2022-09-09T10:57:51;3.08;;;1.23;;
61915;SDS011;47868;51.326;6.550;2022-09-09T11:00:20;3.17;;;1.50;;
61915;SDS011;47868;51.326;6.550;2022-09-09T11:02:52;5.00;;;2.08;;
61915;SDS011;47868;51.326;6.550;2022-09-09T11:05:51;3.83;;;1.52;;
61915;SDS011;47868;51.326;6.550;2022-09-09T11:08:21;2.75;;;1.50;;
61915;SDS011;47868;51.326;6.550;2022-09-09T11:13:41;5.68;;;1.63;;
61915;SDS011;47868;51.326;6.550;2022-09-09T11:18:40;5.65;;;1.42;;
61915;SDS011;47868;51.326;6.550;2022-09-09T11:21:10;5.70;;;1.92;;
61915;SDS011;47868;51.326;6.550;2022-09-09T11:24:33;4.68;;;1.42;;
61915;SDS011;47868;51.326;6.550;2022-09-09T11:26:49;3.33;;;1.20;;
61915;SDS011;47868;51.326;6.550;2022-09-09T11:37:51;4.07;;;1.20;;
61915;SDS011;47868;51.326;6.550;2022-09-09T11:40:39;5.85;;;1.40;;
61915;SDS011;47868;51.326;6.550;2022-09-09T11:43:08;3.20;;;1.42;;
61915;SDS011;47868;51.326;6.550;2022-09-09T11:45:58;2.63;;;1.10;;
61915;SDS011;47868;51.326;6.550;2022-09-09T11:48:34;5.63;;;1.65;;
61915;SDS011;47868;51.326;6.550;2022-09-09T11:53:32;5.80;;;1.50;;
61915;SDS011;47868;51.326;6.550;2022-09-09T11:56:02;1.73;;;1.08;;
61915;SDS011;47868;51.326;6.550;2022-09-09T11:58:38;2.88;;;1.17;;
61915;SDS011;47868;51.326;6.550;2022-09-09T12:01:24;3.42;;;1.42;;
61915;SDS011;47868;51.326;6.550;2022-09-09T12:09:46;3.17;;;1.25;;
61915;SDS011;47868;51.326;6.550;2022-09-09T12:14:44;6.72;;;1.52;;
61915;SDS011;47868;51.326;6.550;2022-09-09T12:17:23;7.43;;;1.45;;
61915;SDS011;47868;51.326;6.550;2022-09-09T12:20:17;2.95;;;1.23;;
61915;SDS011;47868;51.326;6.550;2022-09-09T12:25:26;2.88;;;1.40;;
61915;SDS011;47868;51.326;6.550;2022-09-09T12:28:17;3.83;;;1.30;;
61915;SDS011;47868;51.326;6.550;2022-09-09T12:33:42;1.95;;;1.10;;
61915;SDS011;47868;51.326;6.550;2022-09-09T12:36:14;2.10;;;1.13;;
61915;SDS011;47868;51.326;6.550;2022-09-09T12:38:43;5.43;;;1.63;;
61915;SDS011;47868;51.326;6.550;2022-09-09T12:41:50;6.00;;;1.58;;
61915;SDS011;47868;51.326;6.550;2022-09-09T12:44:05;3.35;;;1.48;;
61915;SDS011;47868;51.326;6.550;2022-09-09T12:46:35;5.28;;;1.40;;
61915;SDS011;47868;51.326;6.550;2022-09-09T12:49:04;2.58;;;1.20;;
61915;SDS011;47868;51.326;6.550;2022-09-09T12:51:32;2.25;;;1.30;;
61915;SDS011;47868;51.326;6.550;2022-09-09T12:53:59;2.53;;;1.27;;
61915;SDS011;47868;51.326;6.550;2022-09-09T12:56:26;4.20;;;1.40;;
61915;SDS011;47868;51.326;6.550;2022-09-09T12:58:56;5.82;;;1.90;;
61915;SDS011;47868;51.326;6.550;2022-09-09T13:01:30;3.80;;;1.70;;
61915;SDS011;47868;51.326;6.550;2022-09-09T13:03:58;1.45;;;1.13;;
61915;SDS011;47868;51.326;6.550;2022-09-09T13:06:28;4.93;;;1.90;;
61915;SDS011;47868;51.326;6.550;2022-09-09T13:08:56;4.20;;;1.70;;
61915;SDS011;47868;51.326;6.550;2022-09-09T13:11:27;4.15;;;1.55;;
61915;SDS011;47868;51.326;6.550;2022-09-09T13:14:04;3.63;;;1.50;;
61915;SDS011;47868;51.326;6.550;2022-09-09T13:16:34;1.85;;;1.15;;
61915;SDS011;47868;51.326;6.550;2022-09-09T13:19:10;3.33;;;1.20;;
61915;SDS011;47868;51.326;6.550;2022-09-09T13:21:39;2.92;;;1.27;;
61915;SDS011;47868;51.326;6.550;2022-09-09T13:24:06;2.83;;;1.00;;
61915;SDS011;47868;51.326;6.550;2022-09-09T13:26:58;2.95;;;1.30;;
61915;SDS011;47868;51.326;6.550;2022-09-09T13:29:27;3.42;;;1.00;;
61915;SDS011;47868;51.326;6.550;2022-09-09T13:31:54;2.47;;;1.05;;
61915;SDS011;47868;51.326;6.550;2022-09-09T13:34:32;2.30;;;1.05;;
61915;SDS011;47868;51.326;6.550;2022-09-09T13:37:01;3.60;;;1.10;;
61915;SDS011;47868;51.326;6.550;2022-09-09T13:39:34;3.38;;;1.15;;
61915;SDS011;47868;51.326;6.550;2022-09-09T13:42:01;5.07;;;1.52;;
61915;SDS011;47868;51.326;6.550;2022-09-09T13:44:29;4.07;;;1.10;;
61915;SDS011;47868;51.326;6.550;2022-09-09T13:49:41;4.70;;;1.40;;
61915;SDS011;47868;51.326;6.550;2022-09-09T13:52:10;2.85;;;1.40;;
61915;SDS011;47868;51.326;6.550;2022-09-09T13:54:42;4.03;;;1.40;;
61915;SDS011;47868;51.326;6.550;2022-09-09T13:57:30;3.20;;;1.45;;
61915;SDS011;47868;51.326;6.550;2022-09-09T13:59:55;2.47;;;1.20;;
61915;SDS011;47868;51.326;6.550;2022-09-09T14:02:21;4.90;;;1.30;;
61915;SDS011;47868;51.326;6.550;2022-09-09T14:04:48;4.40;;;1.25;;
61915;SDS011;47868;51.326;6.550;2022-09-09T14:07:16;3.92;;;1.33;;
61915;SDS011;47868;51.326;6.550;2022-09-09T14:09:42;2.95;;;1.20;;
61915;SDS011;47868;51.326;6.550;2022-09-09T14:12:11;4.13;;;1.30;;
61915;SDS011;47868;51.326;6.550;2022-09-09T14:14:39;4.60;;;1.02;;
61915;SDS011;47868;51.326;6.550;2022-09-09T14:17:06;2.55;;;1.25;;
61915;SDS011;47868;51.326;6.550;2022-09-09T14:19:32;3.95;;;1.10;;
61915;SDS011;47868;51.326;6.550;2022-09-09T14:21:59;1.52;;;0.80;;
61915;SDS011;47868;51.326;6.550;2022-09-09T14:24:25;0.45;;;0.32;;
61915;SDS011;47868;51.326;6.550;2022-09-09T14:26:51;0.50;;;0.50;;
61915;SDS011;47868;51.326;6.550;2022-09-09T14:29:16;1.48;;;0.60;;
61915;SDS011;47868;51.326;6.550;2022-09-09T14:31:42;3.15;;;0.45;;
61915;SDS011;47868;51.326;6.550;2022-09-09T14:34:08;0.80;;;0.50;;
61915;SDS011;47868;51.326;6.550;2022-09-09T14:36:35;1.98;;;0.50;;
61915;SDS011;47868;51.326;6.550;2022-09-09T14:39:00;3.97;;;0.93;;
61915;SDS011;47868;51.326;6.550;2022-09-09T14:41:26;0.73;;;0.60;;
61915;SDS011;47868;51.326;6.550;2022-09-09T14:43:52;1.10;;;1.00;;
61915;SDS011;47868;51.326;6.550;2022-09-09T14:46:19;1.65;;;0.88;;
61915;SDS011;47868;51.326;6.550;2022-09-09T14:48:45;1.95;;;0.93;;
61915;SDS011;47868;51.326;6.550;2022-09-09T14:51:18;3.42;;;1.10;;
61915;SDS011;47868;51.326;6.550;2022-09-09T14:53:47;2.45;;;1.23;;
61915;SDS011;47868;51.326;6.550;2022-09-09T14:56:16;4.18;;;1.30;;
61915;SDS011;47868;51.326;6.550;2022-09-09T14:58:43;3.45;;;1.30;;
61915;SDS011;47868;51.326;6.550;2022-09-09T15:01:10;1.98;;;1.25;;
61915;SDS011;47868;51.326;6.550;2022-09-09T15:03:38;5.50;;;1.17;;
61915;SDS011;47868;51.326;6.550;2022-09-09T15:06:08;5.80;;;1.13;;
61915;SDS011;47868;51.326;6.550;2022-09-09T15:08:40;1.63;;;0.80;;
61915;SDS011;47868;51.326;6.550;2022-09-09T15:11:07;2.08;;;0.82;;
61915;SDS011;47868;51.326;6.550;2022-09-09T15:13:34;5.32;;;0.98;;
61915;SDS011;47868;51.326;6.550;2022-09-09T15:16:21;0.98;;;0.82;;
61915;SDS011;47868;51.326;6.550;2022-09-09T15:18:50;1.15;;;0.98;;
61915;SDS011;47868;51.326;6.550;2022-09-09T15:21:19;1.95;;;0.93;;
61915;SDS011;47868;51.326;6.550;2022-09-09T15:23:47;1.70;;;0.85;;
61915;SDS011;47868;51.326;6.550;2022-09-09T15:26:13;2.53;;;1.00;;
61915;SDS011;47868;51.326;6.550;2022-09-09T15:28:40;1.58;;;0.80;;
61915;SDS011;47868;51.326;6.550;2022-09-09T15:31:18;1.40;;;0.88;;
61915;SDS011;47868;51.326;6.550;2022-09-09T15:33:56;1.63;;;0.93;;
61915;SDS011;47868;51.326;6.550;2022-09-09T15:36:27;1.45;;;0.95;;
61915;SDS011;47868;51.326;6.550;2022-09-09T15:38:54;1.13;;;0.98;;
61915;SDS011;47868;51.326;6.550;2022-09-09T15:41:21;1.55;;;1.00;;
61915;SDS011;47868;51.326;6.550;2022-09-09T15:43:48;2.35;;;1.00;;
61915;SDS011;47868;51.326;6.550;2022-09-09T15:46:22;1.50;;;0.90;;
61915;SDS011;47868;51.326;6.550;2022-09-09T15:48:52;1.50;;;0.90;;
61915;SDS011;47868;51.326;6.550;2022-09-09T15:51:19;2.20;;;1.10;;
61915;SDS011;47868;51.326;6.550;2022-09-09T15:53:45;3.47;;;1.27;;
61915;SDS011;47868;51.326;6.550;2022-09-09T15:56:12;2.67;;;1.10;;
61915;SDS011;47868;51.326;6.550;2022-09-09T15:58:37;3.45;;;1.20;;
61915;SDS011;47868;51.326;6.550;2022-09-09T16:01:03;1.48;;;1.20;;
61915;SDS011;47868;51.326;6.550;2022-09-09T16:03:33;6.15;;;1.45;;
61915;SDS011;47868;51.326;6.550;2022-09-09T16:06:00;3.33;;;1.40;;
61915;SDS011;47868;51.326;6.550;2022-09-09T16:08:31;2.75;;;1.10;;
61915;SDS011;47868;51.326;6.550;2022-09-09T16:11:03;1.38;;;1.00;;
61915;SDS011;47868;51.326;6.550;2022-09-09T16:13:35;2.90;;;1.08;;
61915;SDS011;47868;51.326;6.550;2022-09-09T16:16:02;1.77;;;1.27;;
61915;SDS011;47868;51.326;6.550;2022-09-09T16:18:39;3.67;;;1.23;;
61915;SDS011;47868;51.326;6.550;2022-09-09T16:21:14;2.33;;;1.00;;
61915;SDS011;47868;51.326;6.550;2022-09-09T16:23:45;1.40;;;0.98;;
61915;SDS011;47868;51.326;6.550;2022-09-09T16:26:11;2.15;;;1.05;;
61915;SDS011;47868;51.326;6.550;2022-09-09T16:28:39;2.45;;;1.10;;
61915;SDS011;47868;51.326;6.550;2022-09-09T16:31:06;2.50;;;1.30;;
61915;SDS011;47868;51.326;6.550;2022-09-09T16:33:43;4.30;;;1.67;;
61915;SDS011;47868;51.326;6.550;2022-09-09T16:36:10;2.47;;;1.27;;
61915;SDS011;47868;51.326;6.550;2022-09-09T16:38:38;6.50;;;1.48;;
61915;SDS011;47868;51.326;6.550;2022-09-09T16:41:04;2.63;;;1.40;;
61915;SDS011;47868;51.326;6.550;2022-09-09T16:43:34;2.67;;;1.20;;
61915;SDS011;47868;51.326;6.550;2022-09-09T16:46:01;3.72;;;1.40;;
61915;SDS011;47868;51.326;6.550;2022-09-09T16:48:37;3.85;;;1.77;;
61915;SDS011;47868;51.326;6.550;2022-09-09T16:51:07;4.13;;;1.92;;
61915;SDS011;47868;51.326;6.550;2022-09-09T16:53:37;6.40;;;1.98;;
61915;SDS011;47868;51.326;6.550;2022-09-09T16:56:06;2.70;;;1.60;;
61915;SDS011;47868;51.326;6.550;2022-09-09T16:58:33;3.47;;;1.67;;
61915;SDS011;47868;51.326;6.550;2022-09-09T17:00:59;4.80;;;1.60;;
61915;SDS011;47868;51.326;6.550;2022-09-09T17:03:27;3.95;;;1.65;;
61915;SDS011;47868;51.326;6.550;2022-09-09T17:05:53;4.38;;;2.03;;
61915;SDS011;47868;51.326;6.550;2022-09-09T17:08:19;6.40;;;1.65;;
61915;SDS011;47868;51.326;6.550;2022-09-09T17:10:45;3.88;;;1.80;;
61915;SDS011;47868;51.326;6.550;2022-09-09T17:13:11;4.05;;;1.58;;
61915;SDS011;47868;51.326;6.550;2022-09-09T17:15:41;3.55;;;1.40;;
61915;SDS011;47868;51.326;6.550;2022-09-09T17:18:11;3.70;;;1.48;;
61915;SDS011;47868;51.326;6.550;2022-09-09T17:20:38;4.15;;;1.50;;
61915;SDS011;47868;51.326;6.550;2022-09-09T17:23:05;3.03;;;1.83;;
61915;SDS011;47868;51.326;6.550;2022-09-09T17:25:32;2.55;;;1.70;;
61915;SDS011;47868;51.326;6.550;2022-09-09T17:27:58;3.17;;;1.73;;
61915;SDS011;47868;51.326;6.550;2022-09-09T17:30:25;4.15;;;1.80;;
61915;SDS011;47868;51.326;6.550;2022-09-09T17:32:51;5.43;;;1.75;;
61915;SDS011;47868;51.326;6.550;2022-09-09T17:35:16;4.00;;;1.70;;
61915;SDS011;47868;51.326;6.550;2022-09-09T17:37:43;2.40;;;1.35;;
61915;SDS011;47868;51.326;6.550;2022-09-09T17:40:09;3.63;;;1.67;;